Terminal Aerodrome Forecast
Issued by NWS

Home | Current Version | Previous Version | Text Only | Print | Product List | Glossary On
Versions: 1 2 3 4 5 6 7 8 9 10 11 12 13 14 15 16 17 18 19 20 21
000
FTUS43 KDLH 232148 AAB
TAFHYR
TAF AMD
KHYR 232148Z 2322/2418 15007KT P6SM -RA BKN022 OVC100
      TEMPO 2322/2324 6SM -TSRA BR BKN017CB
     FM240000 15010KT P6SM VCSH SCT020 BKN100
     FM240500 18005KT 4SM BR VCSH OVC025
     FM241200 25004KT P6SM SCT250=

USA.gov is the U.S. government's official web portal to all federal, state and local government web resources and services.